Plymouth, Michigan
Current Conditions -  °F | °C
As of 6:53 AM on Sunday 23 Nov 2014 (Local Time) from KYIP Reporting Station
Light Rain Light Rain  
Wind Chill: 44°   Ceiling: 2500
Heat Index: 49°   Visibility: 8mi
Dew Point: 43°   Wind: 13mph
Humidity: 80%   Direction: 200°SSW
Pressure: 29.94"   Gusts: NA
Location:  42.37°N, 83.47°W
Report Text: KYIP 231153Z 20011KT 8SM -RA OVC025 09/06 A2994 RMK AO2 RAE17B51 SLP139 P0001 60007 70015 T00940061 10100 20083 55003
Loading
Personal Weather Stations






























Interactive Weather Map New forecast layout! Learn more

10-Day Weather Forecast

Advertisements
Track Severe Weather on mobile